^^
Your Local Weather - Clay, NY Station Historical Data
Daily Summary for February 8, 2017 Units:  English    Metric   Both
« Previous Day
Next Day »
Daily Weekly Monthly Yearly Custom
  High: Low: Average:
Temperature: 52.3 °F 26.4 °F 37.3 °F
Dew Point: 46.4 °F 16.9 °F 29.8 °F
Humidity: 89% 64% 74%
Wind Speed: 8.0mph 1.0mph 4.1mph
Wind Gust: 15.0mph - -
Wind- - West
Pressure: 29.84 in 29.29 in -
Precipitation: 0.01 in    
Historical Graphs
 
 
Tabular Data for February 8, 2017
Time Temperature Dew Point Pressure Wind Wind Speed Wind Gust Humidity Rainfall Rate (Hourly) solar
00:00 46.3 °F 42.6 °F 29.32 in SSW 4.0 mph 4.0 mph 87% 0.00 in 0 W/m2
00:06 46.3 °F 42.6 °F 29.32 in SSW 3.0 mph 6.0 mph 87% 0.00 in 0 W/m2
00:12 46.5 °F 42.8 °F 29.32 in South 3.0 mph 4.0 mph 87% 0.00 in 0 W/m2
00:18 46.9 °F 43.5 °F 29.31 in SSE 4.0 mph 6.0 mph 88% 0.00 in 0 W/m2
00:24 47.3 °F 43.6 °F 29.32 in SW 4.0 mph 7.0 mph 87% 0.00 in 0 W/m2
00:30 47.5 °F 44.1 °F 29.32 in South 4.0 mph 5.0 mph 88% 0.00 in 0 W/m2
00:36 47.8 °F 44.1 °F 29.31 in South 4.0 mph 9.0 mph 87% 0.00 in 0 W/m2
00:42 48.1 °F 44.1 °F 29.30 in SSE 5.0 mph 9.0 mph 86% 0.00 in 0 W/m2
00:48 48.2 °F 44.2 °F 29.30 in SW 5.0 mph 9.0 mph 86% 0.00 in 0 W/m2
00:54 48.4 °F 44.1 °F 29.30 in South 6.0 mph 7.0 mph 85% 0.00 in 0 W/m2
01:00 48.5 °F 44.5 °F 29.30 in South 6.0 mph 6.0 mph 86% 0.00 in 0 W/m2
01:06 48.6 °F 44.6 °F 29.29 in South 5.0 mph 6.0 mph 86% 0.00 in 0 W/m2
01:12 48.4 °F 44.4 °F 29.30 in SSE 5.0 mph 5.0 mph 86% 0.00 in 0 W/m2
01:18 48.5 °F 44.5 °F 29.30 in South 5.0 mph 6.0 mph 86% 0.00 in 0 W/m2
01:24 48.6 °F 44.6 °F 29.29 in SW 5.0 mph 5.0 mph 86% 0.00 in 0 W/m2
01:30 49.0 °F 45.0 °F 29.29 in SE 5.0 mph 5.0 mph 86% 0.00 in 0 W/m2
01:36 49.1 °F 44.8 °F 29.29 in South 5.0 mph 5.0 mph 85% 0.00 in 0 W/m2
01:42 49.5 °F 45.2 °F 29.29 in SW 5.0 mph 6.0 mph 85% 0.00 in 0 W/m2
01:48 49.9 °F 45.3 °F 29.29 in SW 5.0 mph 6.0 mph 84% 0.00 in 0 W/m2
01:54 50.2 °F 45.6 °F 29.29 in South 5.0 mph 6.0 mph 84% 0.00 in 0 W/m2
02:00 50.3 °F 45.6 °F 29.29 in SSW 6.0 mph 6.0 mph 84% 0.00 in 0 W/m2
02:06 50.3 °F 45.6 °F 29.30 in SSW 6.0 mph 7.0 mph 84% 0.00 in 0 W/m2
02:12 50.4 °F 45.4 °F 29.30 in South 5.0 mph 6.0 mph 83% 0.00 in 0 W/m2
02:18 50.2 °F 45.2 °F 29.30 in South 4.0 mph 6.0 mph 83% 0.00 in 0 W/m2
02:24 50.0 °F 45.4 °F 29.30 in South 3.0 mph 4.0 mph 84% 0.00 in 0 W/m2
02:30 50.2 °F 45.6 °F 29.31 in SSW 3.0 mph 3.0 mph 84% 0.00 in 0 W/m2
02:36 50.5 °F 45.8 °F 29.32 in SW 4.0 mph 4.0 mph 84% 0.00 in 0 W/m2
02:42 50.7 °F 46.0 °F 29.32 in SW 2.0 mph 7.0 mph 84% 0.00 in 0 W/m2
02:48 51.1 °F 46.1 °F 29.32 in SW 4.0 mph 7.0 mph 83% 0.00 in 0 W/m2
02:54 51.3 °F 46.3 °F 29.32 in SW 5.0 mph 5.0 mph 83% 0.00 in 0 W/m2
03:00 51.3 °F 46.3 °F 29.33 in SW 4.0 mph 4.0 mph 83% 0.00 in 0 W/m2
03:06 51.4 °F 46.4 °F 29.33 in WSW 4.0 mph 10.0 mph 83% 0.00 in 0 W/m2
03:12 52.1 °F 46.4 °F 29.33 in WSW 6.0 mph 9.0 mph 81% 0.00 in 0 W/m2
03:18 52.3 °F 46.3 °F 29.33 in SW 6.0 mph 9.0 mph 80% 0.00 in 0 W/m2
03:24 52.1 °F 45.8 °F 29.33 in West 5.0 mph 6.0 mph 79% 0.00 in 0 W/m2
03:30 52.2 °F 45.5 °F 29.33 in West 6.0 mph 6.0 mph 78% 0.00 in 0 W/m2
03:36 52.2 °F 45.5 °F 29.34 in SW 5.0 mph 9.0 mph 78% 0.00 in 0 W/m2
03:42 51.9 °F 45.6 °F 29.34 in WSW 4.0 mph 6.0 mph 79% 0.00 in 0 W/m2
03:48 51.8 °F 45.5 °F 29.35 in WSW 4.0 mph 6.0 mph 79% 0.00 in 0 W/m2
03:54 51.8 °F 45.5 °F 29.35 in SW 4.0 mph 10.0 mph 79% 0.00 in 0 W/m2
04:00 51.7 °F 45.4 °F 29.35 in SW 4.0 mph 5.0 mph 79% 0.00 in 0 W/m2
04:02 51.6 °F 45.3 °F 29.36 in WSW 4.0 mph 5.0 mph 79% 0.00 in 0 W/m2
04:08 51.5 °F 45.2 °F 29.36 in NW 4.0 mph 5.0 mph 79% 0.00 in 0 W/m2
04:14 51.7 °F 44.7 °F 29.36 in WSW 5.0 mph 13.0 mph 77% 0.00 in 0 W/m2
04:20 51.7 °F 44.4 °F 29.36 in West 6.0 mph 6.0 mph 76% 0.00 in 0 W/m2
04:26 51.6 °F 44.3 °F 29.37 in WSW 6.0 mph 6.0 mph 76% 0.00 in 0 W/m2
04:32 51.4 °F 44.1 °F 29.38 in West 5.0 mph 7.0 mph 76% 0.00 in 0 W/m2
04:38 51.1 °F 43.8 °F 29.39 in West 4.0 mph 7.0 mph 76% 0.00 in 0 W/m2
04:44 50.9 °F 43.9 °F 29.39 in WSW 3.0 mph 4.0 mph 77% 0.00 in 0 W/m2
04:50 50.7 °F 43.8 °F 29.40 in WNW 4.0 mph 5.0 mph 77% 0.00 in 0 W/m2
04:56 50.4 °F 43.5 °F 29.41 in West 4.0 mph 5.0 mph 77% 0.00 in 0 W/m2
05:02 50.0 °F 43.4 °F 29.41 in WNW 3.0 mph 15.0 mph 78% 0.00 in 0 W/m2
05:08 49.4 °F 42.8 °F 29.42 in West 6.0 mph 15.0 mph 78% 0.00 in 0 W/m2
05:14 48.9 °F 42.3 °F 29.43 in WNW 6.0 mph 8.0 mph 78% 0.00 in 0 W/m2
05:20 48.7 °F 42.1 °F 29.43 in NW 6.0 mph 9.0 mph 78% 0.00 in 0 W/m2
05:26 48.4 °F 41.9 °F 29.44 in WNW 6.0 mph 9.0 mph 78% 0.00 in 0 W/m2
05:32 47.8 °F 41.9 °F 29.45 in West 5.0 mph 6.0 mph 80% 0.00 in 0 W/m2
05:38 46.8 °F 41.6 °F 29.46 in WNW 5.0 mph 6.0 mph 82% 0.00 in 0 W/m2
05:44 46.2 °F 41.3 °F 29.47 in NW 5.0 mph 5.0 mph 83% 0.00 in 0 W/m2
05:50 44.4 °F 39.6 °F 29.48 in NNW 5.0 mph 5.0 mph 83% 0.00 in 0 W/m2
05:56 42.6 °F 38.7 °F 29.49 in NW 5.0 mph 5.0 mph 86% 0.00 in 0 W/m2
06:02 41.5 °F 37.9 °F 29.49 in NW 4.0 mph 4.0 mph 87% 0.00 in 0 W/m2
06:06 40.9 °F 37.6 °F 29.50 in NNW 4.0 mph 6.0 mph 88% 0.00 in 0 W/m2
06:12 40.3 °F 37.0 °F 29.51 in NNW 6.0 mph 10.0 mph 88% 0.00 in 0 W/m2
06:18 39.9 °F 36.9 °F 29.51 in North 5.0 mph 10.0 mph 89% 0.00 in 0 W/m2
06:24 39.6 °F 36.6 °F 29.52 in NW 5.0 mph 7.0 mph 89% 0.00 in 0 W/m2
06:30 39.4 °F 36.1 °F 29.53 in WNW 6.0 mph 6.0 mph 88% 0.00 in 0 W/m2
06:36 39.3 °F 35.8 °F 29.53 in WNW 6.0 mph 7.0 mph 87% 0.00 in 0 W/m2
06:42 39.2 °F 35.4 °F 29.54 in North 5.0 mph 12.0 mph 86% 0.00 in 0 W/m2
06:48 39.1 °F 34.7 °F 29.55 in WNW 6.0 mph 12.0 mph 84% 0.00 in 0 W/m2
06:54 39.0 °F 34.6 °F 29.56 in NW 8.0 mph 8.0 mph 84% 0.00 in 0 W/m2
07:00 38.8 °F 34.7 °F 29.57 in West 7.0 mph 7.0 mph 85% 0.00 in 0 W/m2
07:06 38.7 °F 34.9 °F 29.58 in SSW 6.0 mph 7.0 mph 86% 0.00 in 0 W/m2
07:12 38.7 °F 34.9 °F 29.58 in WSW 5.0 mph 6.0 mph 86% 0.00 in 0 W/m2
07:18 38.8 °F 34.7 °F 29.59 in WNW 6.0 mph 6.0 mph 85% 0.00 in 0 W/m2
07:24 38.9 °F 34.8 °F 29.60 in WSW 4.0 mph 6.0 mph 85% 0.00 in 0 W/m2
07:30 38.9 °F 34.8 °F 29.60 in NNW 3.0 mph 4.0 mph 85% 0.00 in 0 W/m2
07:36 39.0 °F 34.6 °F 29.60 in West 3.0 mph 4.0 mph 84% 0.00 in 0 W/m2
07:42 39.1 °F 34.7 °F 29.61 in WNW 3.0 mph 3.0 mph 84% 0.00 in 0 W/m2
07:48 39.1 °F 34.4 °F 29.61 in WNW 3.0 mph 4.0 mph 83% 0.00 in 0 W/m2
07:54 39.1 °F 34.4 °F 29.61 in West 3.0 mph 4.0 mph 83% 0.00 in 7 W/m2
08:00 39.2 °F 34.2 °F 29.61 in WNW 3.0 mph 3.0 mph 82% 0.00 in 7 W/m2
08:06 39.3 °F 34.0 °F 29.61 in WNW 3.0 mph 3.0 mph 81% 0.00 in 11 W/m2
08:12 39.3 °F 33.3 °F 29.62 in WNW 3.0 mph 7.0 mph 79% 0.00 in 12 W/m2
08:18 39.5 °F 32.9 °F 29.62 in WNW 5.0 mph 8.0 mph 77% 0.00 in 12 W/m2
08:24 39.4 °F 32.5 °F 29.63 in NW 5.0 mph 11.0 mph 76% 0.00 in 7 W/m2
08:30 39.1 °F 31.8 °F 29.64 in WNW 7.0 mph 7.0 mph 75% 0.00 in 11 W/m2
08:36 38.6 °F 31.0 °F 29.65 in NW 7.0 mph 9.0 mph 74% 0.00 in 23 W/m2
08:42 38.5 °F 30.9 °F 29.65 in West 7.0 mph 7.0 mph 74% 0.00 in 56 W/m2
08:48 38.5 °F 30.6 °F 29.66 in West 8.0 mph 10.0 mph 73% 0.00 in 76 W/m2
08:54 38.5 °F 30.9 °F 29.66 in WNW 8.0 mph 8.0 mph 74% 0.00 in 141 W/m2
09:00 38.5 °F 30.6 °F 29.66 in WNW 8.0 mph 8.0 mph 73% 0.00 in 151 W/m2
09:06 38.6 °F 31.0 °F 29.66 in West 7.0 mph 9.0 mph 74% 0.00 in 169 W/m2
09:12 38.6 °F 31.4 °F 29.67 in WNW 6.0 mph 10.0 mph 75% 0.00 in 165 W/m2
09:18 38.6 °F 31.7 °F 29.67 in West 5.0 mph 10.0 mph 76% 0.00 in 109 W/m2
09:24 37.9 °F 30.7 °F 29.69 in NW 5.0 mph 7.0 mph 75% 0.00 in 97 W/m2
09:30 37.3 °F 30.1 °F 29.69 in West 6.0 mph 11.0 mph 75% 0.00 in 84 W/m2
09:36 37.0 °F 29.5 °F 29.69 in WNW 7.0 mph 11.0 mph 74% 0.00 in 65 W/m2
09:42 36.7 °F 29.5 °F 29.69 in NW 6.0 mph 9.0 mph 75% 0.00 in 53 W/m2
09:48 36.3 °F 29.5 °F 29.69 in NW 6.0 mph 9.0 mph 76% 0.00 in 84 W/m2
09:54 36.3 °F 29.8 °F 29.69 in WNW 5.0 mph 9.0 mph 77% 0.00 in 141 W/m2
10:00 36.3 °F 29.5 °F 29.69 in NW 5.0 mph 5.0 mph 76% 0.00 in 102 W/m2
10:06 36.2 °F 29.0 °F 29.69 in WNW 4.0 mph 5.0 mph 75% 0.00 in 144 W/m2
10:12 36.1 °F 28.6 °F 29.71 in WNW 5.0 mph 5.0 mph 74% 0.00 in 156 W/m2
10:18 36.2 °F 28.4 °F 29.71 in WNW 4.0 mph 5.0 mph 73% 0.00 in 167 W/m2
10:24 36.3 °F 28.8 °F 29.72 in West 4.0 mph 6.0 mph 74% 0.00 in 149 W/m2
10:30 36.2 °F 27.7 °F 29.72 in WNW 5.0 mph 6.0 mph 71% 0.00 in 190 W/m2
10:36 35.9 °F 27.7 °F 29.73 in WNW 6.0 mph 6.0 mph 72% 0.00 in 213 W/m2
10:42 36.0 °F 27.8 °F 29.73 in West 4.0 mph 6.0 mph 72% 0.00 in 165 W/m2
10:48 35.8 °F 27.0 °F 29.74 in WNW 5.0 mph 6.0 mph 70% 0.00 in 236 W/m2
10:54 36.1 °F 27.6 °F 29.74 in West 5.0 mph 6.0 mph 71% 0.00 in 230 W/m2
11:00 36.3 °F 27.1 °F 29.74 in West 5.0 mph 6.0 mph 69% 0.00 in 258 W/m2
11:06 36.9 °F 28.0 °F 29.74 in NW 4.0 mph 7.0 mph 70% 0.00 in 209 W/m2
11:12 36.4 °F 26.8 °F 29.75 in WNW 5.0 mph 7.0 mph 68% 0.00 in 265 W/m2
11:18 36.2 °F 26.6 °F 29.75 in West 5.0 mph 9.0 mph 68% 0.00 in 167 W/m2
11:24 36.0 °F 26.8 °F 29.75 in West 4.0 mph 5.0 mph 69% 0.00 in 141 W/m2
11:30 35.8 °F 26.6 °F 29.75 in WNW 4.0 mph 4.0 mph 69% 0.00 in 204 W/m2
11:36 35.8 °F 26.3 °F 29.75 in WNW 5.0 mph 5.0 mph 68% 0.00 in 116 W/m2
11:42 35.8 °F 26.6 °F 29.75 in WSW 5.0 mph 5.0 mph 69% 0.00 in 146 W/m2
11:48 35.7 °F 26.9 °F 29.75 in WNW 4.0 mph 6.0 mph 70% 0.00 in 97 W/m2
11:54 35.7 °F 26.9 °F 29.75 in West 4.0 mph 4.0 mph 70% 0.00 in 121 W/m2
12:00 35.7 °F 26.9 °F 29.75 in WNW 3.0 mph 3.0 mph 70% 0.00 in 172 W/m2
12:06 35.9 °F 26.7 °F 29.75 in NW 4.0 mph 5.0 mph 69% 0.00 in 192 W/m2
12:12 35.9 °F 26.4 °F 29.77 in West 5.0 mph 5.0 mph 68% 0.00 in 181 W/m2
12:18 36.1 °F 26.2 °F 29.77 in WNW 4.0 mph 9.0 mph 67% 0.00 in 148 W/m2
12:24 35.8 °F 25.9 °F 29.77 in WNW 5.0 mph 7.0 mph 67% 0.00 in 146 W/m2
12:30 35.9 °F 26.4 °F 29.76 in WNW 5.0 mph 5.0 mph 68% 0.00 in 216 W/m2
12:36 36.0 °F 26.5 °F 29.76 in West 4.0 mph 5.0 mph 68% 0.00 in 174 W/m2
12:42 35.8 °F 25.9 °F 29.77 in NW 4.0 mph 7.0 mph 67% 0.00 in 156 W/m2
12:48 35.7 °F 25.8 °F 29.77 in West 4.0 mph 9.0 mph 67% 0.00 in 186 W/m2
12:54 35.5 °F 25.3 °F 29.77 in WNW 4.0 mph 9.0 mph 66% 0.00 in 178 W/m2
13:00 35.6 °F 25.4 °F 29.77 in WNW 5.0 mph 5.0 mph 66% 0.00 in 258 W/m2
13:06 36.2 °F 26.6 °F 29.77 in NW 4.0 mph 5.0 mph 68% 0.00 in 290 W/m2
13:12 36.7 °F 25.7 °F 29.76 in WNW 4.0 mph 6.0 mph 64% 0.00 in 302 W/m2
13:18 36.8 °F 25.8 °F 29.77 in WNW 5.0 mph 6.0 mph 64% 0.00 in 158 W/m2
13:24 36.3 °F 25.7 °F 29.77 in WNW 4.0 mph 6.0 mph 65% 0.00 in 156 W/m2
13:30 36.1 °F 25.8 °F 29.77 in WNW 3.0 mph 5.0 mph 66% 0.00 in 178 W/m2
13:36 35.6 °F 26.1 °F 29.77 in West 4.0 mph 8.0 mph 68% 0.00 in 153 W/m2
13:42 35.1 °F 25.9 °F 29.77 in WNW 5.0 mph 7.0 mph 69% 0.00 in 218 W/m2
13:48 35.0 °F 26.2 °F 29.77 in NW 5.0 mph 7.0 mph 70% 0.00 in 202 W/m2
13:54 34.8 °F 26.0 °F 29.77 in WSW 5.0 mph 5.0 mph 70% 0.00 in 220 W/m2
14:00 34.8 °F 25.7 °F 29.77 in West 4.0 mph 5.0 mph 69% 0.00 in 250 W/m2
14:08 34.8 °F 26.0 °F 29.77 in NW 5.0 mph 5.0 mph 70% 0.00 in 218 W/m2
14:14 34.3 °F 24.8 °F 29.77 in NNW 5.0 mph 10.0 mph 68% 0.00 in 165 W/m2
14:20 33.8 °F 24.7 °F 29.77 in NW 5.0 mph 5.0 mph 69% 0.00 in 172 W/m2
14:26 33.8 °F 25.4 °F 29.77 in WNW 4.0 mph 7.0 mph 71% 0.00 in 176 W/m2
14:32 33.7 °F 24.6 °F 29.78 in WNW 5.0 mph 9.0 mph 69% 0.00 in 158 W/m2
14:38 33.6 °F 24.9 °F 29.78 in WNW 5.0 mph 9.0 mph 70% 0.00 in 160 W/m2
14:44 33.6 °F 24.5 °F 29.78 in West 5.0 mph 5.0 mph 69% 0.00 in 250 W/m2
14:50 34.1 °F 25.0 °F 29.77 in NW 4.0 mph 4.0 mph 69% 0.00 in 399 W/m2
14:56 34.1 °F 23.9 °F 29.78 in WNW 5.0 mph 6.0 mph 66% 0.00 in 265 W/m2
15:02 33.8 °F 24.4 °F 29.78 in West 6.0 mph 6.0 mph 68% 0.00 in 185 W/m2
15:08 33.5 °F 24.4 °F 29.78 in NW 5.0 mph 7.0 mph 69% 0.00 in 172 W/m2
15:14 33.2 °F 23.4 °F 29.78 in NNW 5.0 mph 6.0 mph 67% 0.00 in 139 W/m2
15:20 32.8 °F 23.4 °F 29.80 in WNW 5.0 mph 5.0 mph 68% 0.00 in 132 W/m2
15:26 32.7 °F 23.3 °F 29.80 in WNW 5.0 mph 5.0 mph 68% 0.00 in 102 W/m2
15:32 32.7 °F 23.3 °F 29.78 in NNW 5.0 mph 5.0 mph 68% 0.00 in 132 W/m2
15:38 32.9 °F 23.8 °F 29.78 in NW 3.0 mph 5.0 mph 69% 0.00 in 83 W/m2
15:44 32.9 °F 23.5 °F 29.78 in NNE 2.0 mph 4.0 mph 68% 0.00 in 132 W/m2
15:50 32.9 °F 23.5 °F 29.79 in NNW 4.0 mph 4.0 mph 68% 0.00 in 83 W/m2
15:56 32.8 °F 23.0 °F 29.79 in NW 4.0 mph 5.0 mph 67% 0.00 in 76 W/m2
16:02 32.6 °F 22.8 °F 29.80 in NW 4.0 mph 4.0 mph 67% 0.00 in 49 W/m2
16:08 32.5 °F 23.1 °F 29.80 in NNW 3.0 mph 4.0 mph 68% 0.00 in 39 W/m2
16:14 32.3 °F 23.3 °F 29.80 in NW 4.0 mph 5.0 mph 69% 0.00 in 42 W/m2
16:20 32.1 °F 23.1 °F 29.80 in NNW 4.0 mph 4.0 mph 69% 0.00 in 35 W/m2
16:26 31.8 °F 23.1 °F 29.80 in West 4.0 mph 6.0 mph 70% 0.00 in 26 W/m2
16:32 31.5 °F 23.2 °F 29.80 in NNW 4.0 mph 4.0 mph 71% 0.00 in 18 W/m2
16:38 31.3 °F 23.0 °F 29.81 in NW 4.0 mph 4.0 mph 71% 0.00 in 32 W/m2
16:44 31.2 °F 22.9 °F 29.81 in NNW 3.0 mph 4.0 mph 71% 0.00 in 11 W/m2
16:50 31.0 °F 22.7 °F 29.81 in WNW 3.0 mph 3.0 mph 71% 0.00 in 7 W/m2
16:56 30.9 °F 23.3 °F 29.81 in NW 3.0 mph 3.0 mph 73% 0.00 in 0 W/m2
17:02 30.7 °F 22.7 °F 29.81 in WNW 3.0 mph 5.0 mph 72% 0.00 in 0 W/m2
17:08 30.6 °F 23.0 °F 29.81 in NW 3.0 mph 7.0 mph 73% 0.00 in 0 W/m2
17:14 30.5 °F 22.9 °F 29.81 in North 2.0 mph 3.0 mph 73% 0.00 in 0 W/m2
17:20 30.4 °F 22.8 °F 29.82 in WNW 3.0 mph 3.0 mph 73% 0.00 in 0 W/m2
17:26 30.2 °F 22.6 °F 29.82 in NW 4.0 mph 5.0 mph 73% 0.00 in 0 W/m2
17:32 30.1 °F 22.2 °F 29.82 in WNW 3.0 mph 4.0 mph 72% 0.00 in 0 W/m2
17:38 30.0 °F 22.1 °F 29.81 in NW 3.0 mph 4.0 mph 72% 0.00 in 0 W/m2
17:44 29.9 °F 22.0 °F 29.82 in NNW 3.0 mph 3.0 mph 72% 0.00 in 0 W/m2
17:50 29.9 °F 22.0 °F 29.82 in WNW 2.0 mph 3.0 mph 72% 0.00 in 0 W/m2
17:56 29.8 °F 21.9 °F 29.83 in NW 3.0 mph 5.0 mph 72% 0.00 in 0 W/m2
18:02 29.6 °F 21.7 °F 29.83 in NNW 2.0 mph 6.0 mph 72% 0.00 in 0 W/m2
18:08 29.6 °F 21.7 °F 29.83 in NW 2.0 mph 6.0 mph 72% 0.00 in 0 W/m2
18:14 29.5 °F 21.9 °F 29.83 in NW 1.0 mph 2.0 mph 73% 0.00 in 0 W/m2
18:20 29.5 °F 21.6 °F 29.83 in NW 1.0 mph 3.0 mph 72% 0.00 in 0 W/m2
18:26 29.5 °F 21.6 °F 29.83 in NW 2.0 mph 3.0 mph 72% 0.00 in 0 W/m2
18:32 29.4 °F 21.2 °F 29.83 in NNW 2.0 mph 3.0 mph 71% 0.00 in 0 W/m2
18:38 29.4 °F 21.2 °F 29.83 in WNW 3.0 mph 7.0 mph 71% 0.00 in 0 W/m2
18:44 29.4 °F 21.5 °F 29.83 in WNW 2.0 mph 5.0 mph 72% 0.00 in 0 W/m2
18:50 29.4 °F 21.5 °F 29.83 in WNW 2.0 mph 2.0 mph 72% 0.00 in 0 W/m2
18:56 29.3 °F 21.1 °F 29.83 in NNW 1.0 mph 4.0 mph 71% 0.00 in 0 W/m2
19:02 29.3 °F 21.1 °F 29.83 in NNW 2.0 mph 4.0 mph 71% 0.00 in 0 W/m2
19:08 29.2 °F 20.6 °F 29.83 in WNW 2.0 mph 4.0 mph 70% 0.00 in 0 W/m2
19:14 29.1 °F 20.2 °F 29.83 in NNW 2.0 mph 3.0 mph 69% 0.00 in 0 W/m2
19:20 29.0 °F 20.4 °F 29.83 in NNE 3.0 mph 4.0 mph 70% 0.00 in 0 W/m2
19:26 29.0 °F 20.1 °F 29.84 in NNW 2.0 mph 4.0 mph 69% 0.00 in 0 W/m2
19:32 28.9 °F 19.7 °F 29.83 in NW 2.0 mph 3.0 mph 68% 0.00 in 0 W/m2
19:38 28.9 °F 19.7 °F 29.83 in NW 2.0 mph 3.0 mph 68% 0.00 in 0 W/m2
19:44 28.8 °F 19.9 °F 29.83 in NW 2.0 mph 5.0 mph 69% 0.00 in 0 W/m2
19:50 28.7 °F 19.8 °F 29.83 in NNW 3.0 mph 7.0 mph 69% 0.00 in 0 W/m2
19:56 28.6 °F 19.7 °F 29.83 in NW 3.0 mph 7.0 mph 69% 0.00 in 0 W/m2
20:02 28.5 °F 19.3 °F 29.83 in NW 3.0 mph 4.0 mph 68% 0.00 in 0 W/m2
20:08 28.4 °F 19.2 °F 29.84 in NW 3.0 mph 4.0 mph 68% 0.00 in 0 W/m2
20:14 28.4 °F 19.2 °F 29.84 in NW 2.0 mph 2.0 mph 68% 0.00 in 0 W/m2
20:20 28.3 °F 19.4 °F 29.83 in NNW 2.0 mph 3.0 mph 69% 0.00 in 0 W/m2
20:26 28.3 °F 19.1 °F 29.84 in NW 2.0 mph 4.0 mph 68% 0.00 in 0 W/m2
20:32 28.2 °F 19.0 °F 29.84 in NW 1.0 mph 2.0 mph 68% 0.00 in 0 W/m2
20:38 28.2 °F 19.0 °F 29.84 in NW 1.0 mph 3.0 mph 68% 0.00 in 0 W/m2
20:44 28.2 °F 19.0 °F 29.84 in NW 2.0 mph 3.0 mph 68% 0.00 in 0 W/m2
20:50 28.2 °F 18.6 °F 29.83 in NW 2.0 mph 2.0 mph 67% 0.00 in 0 W/m2
20:56 28.1 °F 18.5 °F 29.83 in NW 1.0 mph 2.0 mph 67% 0.00 in 0 W/m2
21:02 28.0 °F 18.1 °F 29.83 in North 2.0 mph 3.0 mph 66% 0.00 in 0 W/m2
21:08 27.9 °F 18.0 °F 29.83 in NNE 3.0 mph 3.0 mph 66% 0.00 in 0 W/m2
21:14 27.9 °F 17.6 °F 29.84 in North 3.0 mph 3.0 mph 65% 0.00 in 0 W/m2
21:20 27.8 °F 17.6 °F 29.83 in North 2.0 mph 2.0 mph 65% 0.00 in 0 W/m2
21:26 27.8 °F 17.6 °F 29.83 in NNW 2.0 mph 3.0 mph 65% 0.00 in 0 W/m2
21:32 27.8 °F 17.9 °F 29.83 in NNW 2.0 mph 2.0 mph 66% 0.00 in 0 W/m2
21:38 27.8 °F 17.6 °F 29.82 in NW 2.0 mph 2.0 mph 65% 0.00 in 0 W/m2
21:44 27.7 °F 17.1 °F 29.82 in NNW 2.0 mph 5.0 mph 64% 0.00 in 0 W/m2
21:50 27.6 °F 17.0 °F 29.82 in NW 3.0 mph 3.0 mph 64% 0.00 in 0 W/m2
21:56 27.6 °F 17.4 °F 29.82 in NW 2.0 mph 3.0 mph 65% 0.00 in 0 W/m2
22:02 27.6 °F 17.4 °F 29.82 in NW 1.0 mph 2.0 mph 65% 0.00 in 0 W/m2
22:08 27.6 °F 17.4 °F 29.82 in NW 1.0 mph 2.0 mph 65% 0.00 in 0 W/m2
22:14 27.6 °F 17.7 °F 29.82 in NW 1.0 mph 1.0 mph 66% 0.00 in 0 W/m2
22:20 27.5 °F 17.3 °F 29.82 in NNW 2.0 mph 4.0 mph 65% 0.00 in 0 W/m2
22:26 27.5 °F 17.3 °F 29.82 in North 3.0 mph 4.0 mph 65% 0.00 in 0 W/m2
22:32 27.5 °F 17.3 °F 29.82 in North 3.0 mph 4.0 mph 65% 0.00 in 0 W/m2
22:38 27.5 °F 17.3 °F 29.82 in North 3.0 mph 4.0 mph 65% 0.00 in 0 W/m2
22:44 27.4 °F 17.9 °F 29.82 in NW 3.0 mph 4.0 mph 67% 0.00 in 0 W/m2
22:50 27.5 °F 17.6 °F 29.83 in NW 3.0 mph 4.0 mph 66% 0.00 in 0 W/m2
22:56 27.4 °F 17.5 °F 29.82 in North 4.0 mph 5.0 mph 66% 0.00 in 0 W/m2
23:02 27.3 °F 17.8 °F 29.82 in North 3.0 mph 4.0 mph 67% 0.00 in 0 W/m2
23:08 27.2 °F 17.7 °F 29.82 in NW 3.0 mph 4.0 mph 67% 0.00 in 0 W/m2
23:14 27.1 °F 17.2 °F 29.82 in NNW 4.0 mph 6.0 mph 66% 0.00 in 0 W/m2
23:20 26.9 °F 17.0 °F 29.82 in NNW 5.0 mph 5.0 mph 66% 0.00 in 0 W/m2
23:26 26.9 °F 17.0 °F 29.82 in NNE 4.0 mph 8.0 mph 66% 0.00 in 0 W/m2
23:32 26.8 °F 17.3 °F 29.81 in NNW 4.0 mph 4.0 mph 67% 0.00 in 0 W/m2
23:38 26.7 °F 17.2 °F 29.81 in North 3.0 mph 4.0 mph 67% 0.00 in 0 W/m2
23:44 26.5 °F 17.0 °F 29.80 in NW 4.0 mph 7.0 mph 67% 0.00 in 0 W/m2
23:50 26.4 °F 16.9 °F 29.80 in North 5.0 mph 5.0 mph 67% 0.00 in 0 W/m2
23:56 26.4 °F 17.3 °F 29.81 in NW 4.0 mph 5.0 mph 68% 0.00 in 0 W/m2
Country Meadow, Clay, NY, USA
Compliments of Weather Underground - 2 mb